Seabourn Quest — C6YZ5 — position and weather

sailwx.info

Track history (hours):
 
Tides and Currents Weather Stations Pressure Air Temp Water Temp Dewpoint Dewpoint Depression Visibility Wind Speed Wind Dir Waves Ship Positions

Seabourn Quest

Last reported at 2017-May-28 06:30 UTC. Time now 2017-May-28 06:44 UTC.
Position N 57°46' E 007°02'.

Length 198 m; draft 6.8 m.

Type: Passenger vessel. MMSI: 311038900.

Date/timePositionNaut miles runAvg speedWind from/ knotsBaromVisibWave heightAir tempDewpointWater temp
2017-May-28 06:30N 57°46' E 007°02'714.3
2017-May-28 06:00N 57°45' E 007°15'714.1
2017-May-28 05:30N 57°45' E 007°29'714.9
2017-May-28 05:00N 57°45' E 007°43'1019.1
2017-May-28 04:30N 57°46' E 008°01'2619.2
2017-May-28 03:10N 57°46' E 008°49'419.4
2017-May-28 02:57N 57°46' E 008°56'919.2
2017-May-28 02:30N 57°47' E 009°12'1019.0
2017-May-28 02:00N 57°47' E 009°31'1218.7
2017-May-28 01:20N 57°48' E 009°53'1118.9
2017-May-28 00:46N 57°49' E 010°14'518.8
2017-May-28 00:30N 57°49' E 010°23'918.9
2017-May-28 00:01N 57°49' E 010°41'918.0
2017-May-27 23:30N 57°44' E 010°56'919.2
2017-May-27 23:00N 57°38' E 011°09'1019.2
2017-May-27 22:31N 57°32' E 011°22'1019.3
2017-May-27 22:00N 57°23' E 011°30'918.7
2017-May-27 21:30N 57°14' E 011°36'918.9
2017-May-27 21:00N 57°05' E 011°41'1018.8
2017-May-27 20:29N 56°56' E 011°47'918.7
2017-May-27 20:00N 56°47' E 011°52'3118.6
2017-May-27 18:19N 56°17' E 012°08'719.0
2017-May-27 17:58N 56°14' E 012°18'918.6
2017-May-27 17:30N 56°08' E 012°30'918.3
2017-May-27 17:00N 56°01' E 012°41'816.8
2017-May-27 16:31N 55°53' E 012°46'816.0
2017-May-27 16:01N 55°46' E 012°41'4 7.0
2017-May-27 15:30N 55°43' E 012°38'0 0.0
2017-May-27 14:58N 55°43' E 012°38'0 0.0
2017-May-27 13:58N 55°43' E 012°38'0 0.0
2017-May-27 13:30N 55°43' E 012°38'0 0.0
2017-May-27 13:00N 55°43' E 012°38'0 0.0
2017-May-27 12:30N 55°43' E 012°38'0 0.0
2017-May-27 11:59N 55°43' E 012°38'0 0.0
2017-May-27 11:29N 55°43' E 012°38'0 0.0
2017-May-27 10:59N 55°43' E 012°38'0 0.0
2017-May-27 10:29N 55°43' E 012°38'0 0.0
2017-May-27 09:59N 55°43' E 012°38'0 0.0
2017-May-27 09:29N 55°43' E 012°38'0 0.0
2017-May-27 08:59N 55°43' E 012°38'0 0.0
2017-May-27 08:29N 55°43' E 012°38'0 0.0
2017-May-27 07:59N 55°43' E 012°38'0 0.0
2017-May-27 07:29N 55°43' E 012°38'0 0.0
2017-May-27 06:59N 55°43' E 012°38'0 0.0
2017-May-27 06:29N 55°43' E 012°38'0 0.0
2017-May-27 05:59N 55°43' E 012°38'0 0.0
2017-May-27 05:29N 55°43' E 012°38'0 0.0
2017-May-27 04:59N 55°43' E 012°38'0 0.0
2017-May-27 04:29N 55°43' E 012°38'0 0.1
2017-May-27 04:00N 55°43' E 012°38'2 4.7
2017-May-27 03:30N 55°42' E 012°41'611.7
2017-May-27 03:00N 55°36' E 012°42'5 9.7
2017-May-27 02:30N 55°31' E 012°43'713.1
2017-May-27 02:00N 55°25' E 012°41'612.8
2017-May-27 01:30N 55°18' E 012°41'714.0
2017-May-27 01:00N 55°16' E 012°53'713.9
2017-May-27 00:30N 55°16' E 013°06'713.9
2017-May-27 00:00N 55°15' E 013°17'2615.1
2017-May-26 22:17N 55°13' E 014°03'515.2
2017-May-26 21:58N 55°13' E 014°11'613.6
2017-May-26 21:30N 55°16' E 014°21'815.1
2017-May-26 20:59N 55°22' E 014°30'714.8
2017-May-26 20:30N 55°28' E 014°38'815.2
2017-May-26 20:00N 55°32' E 014°49'714.7
2017-May-26 19:29N 55°36' E 014°60'715.1
2017-May-26 19:00N 55°40' E 015°11'815.3
2017-May-26 18:30N 55°43' E 015°24'815.4
2017-May-26 18:00N 55°46' E 015°36'815.5
2017-May-26 17:30N 55°50' E 015°48'815.7
2017-May-26 17:00N 55°54' E 016°00'815.5
2017-May-26 16:30N 55°57' E 016°12'815.5
2017-May-26 16:00N 56°01' E 016°24'815.3
2017-May-26 15:30N 56°05' E 016°36'815.2
2017-May-26 15:00N 56°09' E 016°47'815.2
2017-May-26 14:30N 56°14' E 016°58'1915.4
2017-May-26 13:17N 56°26' E 017°25'915.6
2017-May-26 12:43N 56°31' E 017°38'21815.0
2017-May-25 22:14N 59°18' E 021°60'314.2
2017-May-25 22:00N 59°20' E 022°05'3514.2
2017-May-25 19:33N 59°35' E 023°07'214.7
2017-May-25 19:26N 59°35' E 023°10'614.8
2017-May-25 19:00N 59°37' E 023°22'714.4
2017-May-25 18:30N 59°39' E 023°36'714.7
2017-May-25 18:00N 59°41' E 023°50'914.7
2017-May-25 17:25N 59°44' E 024°06'37 2.9
2017-May-25 04:28N 60°10' E 024°60'911.8
2017-May-25 03:44N 60°01' E 024°57'3012.4
2017-May-25 01:18N 59°57' E 025°57'414.9
2017-May-25 01:00N 59°58' E 026°06'714.6
2017-May-25 00:30N 59°60' E 026°20'714.5
2017-May-25 00:00N 60°02' E 026°33'714.4
2017-May-24 23:30N 60°01' E 026°48'814.6
2017-May-24 22:58N 59°59' E 027°03'714.7
2017-May-24 22:30N 60°03' E 027°15'714.8
2017-May-24 22:00N 60°07' E 027°27'714.7
2017-May-24 21:30N 60°11' E 027°40'917.7
2017-May-24 21:00N 60°11' E 027°58'1019.3
2017-May-24 20:30N 60°08' E 028°17'918.7
2017-May-24 20:00N 60°03' E 028°33'1019.3
2017-May-24 19:30N 60°03' E 028°52'2815.0
2017-May-24 17:40N 59°58' E 029°47'510.6
2017-May-24 17:10N 59°56' E 029°56'311.3
2017-May-24 16:56N 59°55' E 030°01'4 9.4
2017-May-24 16:30N 59°54' E 030°08'3 5.3
2017-May-24 16:00N 59°54' E 030°14'3 5.2
2017-May-24 15:30N 59°56' E 030°17'0 0.7
2017-May-24 14:59N 59°56' E 030°16'0 0.0
2017-May-24 14:29N 59°56' E 030°16'0 0.0
2017-May-24 13:29N 59°56' E 030°16'0 0.0
2017-May-24 12:56N 59°56' E 030°16'0 0.0
2017-May-24 12:29N 59°56' E 030°16'0 0.0
2017-May-24 11:58N 59°56' E 030°16'0 0.0
2017-May-24 11:30N 59°56' E 030°16'0 0.0
2017-May-24 10:58N 59°56' E 030°16'0 0.0
2017-May-24 10:30N 59°56' E 030°16'0 0.0
2017-May-24 10:01N 59°56' E 030°16'0 0.0
2017-May-24 09:30N 59°56' E 030°16'0 0.0
2017-May-24 09:01N 59°56' E 030°16'0 0.0
2017-May-24 08:29N 59°56' E 030°16'0 0.0
2017-May-24 07:59N 59°56' E 030°16'0 0.0
2017-May-24 07:29N 59°56' E 030°16'0 0.0
2017-May-24 07:00N 59°56' E 030°16'0 0.0
2017-May-24 06:29N 59°56' E 030°16'0 0.0
2017-May-24 05:59N 59°56' E 030°16'0 0.0
2017-May-24 05:29N 59°56' E 030°16'0 0.0
2017-May-24 04:59N 59°56' E 030°16'0 0.0
2017-May-24 04:29N 59°56' E 030°16'0 0.0
2017-May-24 03:59N 59°56' E 030°16'0 0.0
2017-May-24 03:29N 59°56' E 030°16'0 0.0
2017-May-24 03:00N 59°56' E 030°16'0 0.0
2017-May-24 02:30N 59°56' E 030°16'0 0.0
2017-May-24 01:59N 59°56' E 030°16'0 0.0
2017-May-24 01:28N 59°56' E 030°16'0 0.0
2017-May-24 01:00N 59°56' E 030°16'0 0.0
2017-May-24 00:28N 59°56' E 030°16'0 0.0
2017-May-24 00:00N 59°56' E 030°16'0 0.0
2017-May-23 23:29N 59°56' E 030°16'0 0.0
2017-May-23 23:00N 59°56' E 030°16'0 0.0
2017-May-23 22:28N 59°56' E 030°16'0 0.0
2017-May-23 21:58N 59°56' E 030°16'0 0.0
2017-May-23 21:28N 59°56' E 030°16'0 0.0
2017-May-23 20:58N 59°56' E 030°16'0 0.0
2017-May-23 20:28N 59°56' E 030°16'0 0.0
2017-May-23 19:52N 59°56' E 030°16'0 0.0
2017-May-23 19:28N 59°56' E 030°16'0 0.0
2017-May-23 18:58N 59°56' E 030°16'0 0.0
2017-May-23 18:30N 59°56' E 030°16'0 0.0
2017-May-23 18:00N 59°56' E 030°16'0 0.0
2017-May-23 17:27N 59°56' E 030°16'0 0.0
2017-May-23 17:00N 59°56' E 030°16'0 0.0
2017-May-23 16:30N 59°56' E 030°16'0 0.0
2017-May-23 16:00N 59°56' E 030°16'0 0.0
2017-May-23 15:30N 59°56' E 030°16'0 0.0
2017-May-23 15:00N 59°56' E 030°16'0 0.0
2017-May-23 14:00N 59°56' E 030°16'0 0.0
2017-May-23 13:30N 59°56' E 030°16'0 0.0
2017-May-23 13:00N 59°56' E 030°16'0 0.0
2017-May-23 12:30N 59°56' E 030°16'0 0.0
2017-May-23 11:59N 59°56' E 030°16'0 0.0
2017-May-23 11:29N 59°56' E 030°16'0 0.0
2017-May-23 10:59N 59°56' E 030°16'0 0.0
2017-May-23 10:28N 59°56' E 030°16'0 0.0
2017-May-23 09:58N 59°56' E 030°16'0 0.0
2017-May-23 09:30N 59°56' E 030°16'0 0.0
2017-May-23 08:59N 59°56' E 030°16'0 0.0
2017-May-23 08:28N 59°56' E 030°16'0 0.0
2017-May-23 07:56N 59°56' E 030°16'0 0.0
2017-May-23 07:30N 59°56' E 030°16'0 0.0
2017-May-23 06:59N 59°56' E 030°16'0 0.0
2017-May-23 06:29N 59°56' E 030°16'0 0.0
2017-May-23 05:59N 59°56' E 030°16'0 0.0
2017-May-23 05:29N 59°56' E 030°16'0 0.0
2017-May-23 04:59N 59°56' E 030°16'0 0.0
2017-May-23 04:28N 59°56' E 030°16'0 0.0
2017-May-23 04:00N 59°56' E 030°16'0 0.0
2017-May-23 03:29N 59°56' E 030°16'0 0.0
2017-May-23 02:58N 59°56' E 030°16'0 0.0
2017-May-23 02:29N 59°56' E 030°16'0 0.0
2017-May-23 01:59N 59°56' E 030°16'0 0.0
2017-May-23 01:29N 59°56' E 030°16'0 0.0
2017-May-23 00:59N 59°56' E 030°16'0 0.0
2017-May-23 00:29N 59°56' E 030°16'0 0.0
2017-May-22 23:59N 59°56' E 030°16'0 0.0
2017-May-22 23:29N 59°56' E 030°16'0 0.0
2017-May-22 22:59N 59°56' E 030°16'0 0.0
2017-May-22 22:30N 59°56' E 030°16'0 0.0
2017-May-22 21:59N 59°56' E 030°16'0 0.0
2017-May-22 21:29N 59°56' E 030°16'0 0.0
2017-May-22 20:59N 59°56' E 030°16'0 0.0
2017-May-22 20:29N 59°56' E 030°16'0 0.0
2017-May-22 19:59N 59°56' E 030°16'0 0.0
2017-May-22 19:29N 59°56' E 030°16'0 0.0
2017-May-22 18:59N 59°56' E 030°16'0 0.0
2017-May-22 18:29N 59°56' E 030°16'0 0.0
2017-May-22 17:59N 59°56' E 030°16'0 0.0
2017-May-22 17:29N 59°56' E 030°16'0 0.0
2017-May-22 17:00N 59°56' E 030°16'0 0.0
2017-May-22 16:29N 59°56' E 030°16'0 0.0
2017-May-22 15:58N 59°56' E 030°16'0 0.0
2017-May-22 15:28N 59°56' E 030°16'0 0.0
2017-May-22 15:00N 59°56' E 030°16'0 0.0
2017-May-22 13:59N 59°56' E 030°16'0 0.0
2017-May-22 13:28N 59°56' E 030°16'0 0.0
2017-May-22 13:00N 59°56' E 030°16'0 0.0
2017-May-22 12:26N 59°56' E 030°16'0 0.0
2017-May-22 11:58N 59°56' E 030°16'0 0.0
2017-May-22 11:28N 59°56' E 030°16'0 0.0
2017-May-22 10:58N 59°56' E 030°16'0 0.0
2017-May-22 10:29N 59°56' E 030°16'0 0.0
2017-May-22 09:59N 59°56' E 030°16'0 0.0
2017-May-22 09:29N 59°56' E 030°16'0 0.0
2017-May-22 08:59N 59°56' E 030°16'0 0.0
2017-May-22 08:23N 59°56' E 030°16'0 0.0
2017-May-22 07:59N 59°56' E 030°16'0 0.0
2017-May-22 07:26N 59°56' E 030°16'0 0.0
2017-May-22 06:58N 59°56' E 030°16'0 0.0
2017-May-22 06:31N 59°56' E 030°16'0 0.0
2017-May-22 05:59N 59°56' E 030°16'0 0.0
2017-May-22 05:28N 59°56' E 030°16'0 0.0
2017-May-22 05:01N 59°56' E 030°16'0 0.9
2017-May-22 04:31N 59°55' E 030°16'3 5.4
2017-May-22 04:00N 59°53' E 030°12'3 6.7
2017-May-22 03:30N 59°54' E 030°06'611.7
2017-May-22 03:00N 59°56' E 029°55'611.4
2017-May-22 02:29N 59°59' E 029°44'2210.4
2017-May-22 00:23N 60°02' E 029°01'514.7
2017-May-22 00:00N 60°02' E 028°50'714.6
2017-May-21 23:30N 60°02' E 028°36'714.0
2017-May-21 23:00N 60°04' E 028°22'713.6
2017-May-21 22:30N 60°08' E 028°10'714.0
2017-May-21 22:00N 60°10' E 027°57'713.4
2017-May-21 21:30N 60°10' E 027°44'714.4
2017-May-21 21:00N 60°07' E 027°31'714.6
2017-May-21 20:30N 60°03' E 027°18'815.0
2017-May-21 20:00N 59°59' E 027°05'714.5
2017-May-21 19:30N 59°59' E 026°51'714.3
2017-May-21 19:00N 59°59' E 026°37'76 5.4
2017-May-21 04:55N 59°30' E 024°18'813.2
2017-May-21 04:19N 59°29' E 024°02'514.0
2017-May-21 03:58N 59°29' E 023°53'714.3
2017-May-21 03:30N 59°29' E 023°40'713.9
2017-May-21 03:00N 59°28' E 023°26'713.7
2017-May-21 02:30N 59°27' E 023°13'4015.9
2017-May-21 00:00N 59°12' E 022°00'8518.1 050 / 101020.010.8 8.9 7.1
2017-May-20 19:15N 59°14' E 019°13'713.4
2017-May-20 18:42N 59°16' E 018°59'5 9.7
2017-May-20 18:13N 59°18' E 018°51'1411.8
2017-May-20 17:02N 59°26' E 018°28'112.1
2017-May-20 16:56N 59°26' E 018°26'3 7.0
2017-May-20 16:30N 59°24' E 018°27'4 6.3
2017-May-20 15:55N 59°22' E 018°20'511.5
2017-May-20 15:30N 59°20' E 018°12'2 4.3
2017-May-20 14:59N 59°21' E 018°07'0 0.0
2017-May-20 13:59N 59°21' E 018°07'0 0.0
2017-May-20 13:28N 59°21' E 018°07'0 0.0
2017-May-20 13:00N 59°21' E 018°07'0 0.0
2017-May-20 12:30N 59°21' E 018°07'0 0.0
2017-May-20 11:59N 59°21' E 018°07'0 0.0
2017-May-20 11:29N 59°21' E 018°07'0 0.0
2017-May-20 10:59N 59°21' E 018°07'0 0.0
2017-May-20 10:29N 59°21' E 018°07'0 0.0
2017-May-20 09:59N 59°21' E 018°07'0 0.0
2017-May-20 09:26N 59°21' E 018°07'0 0.0
2017-May-20 08:58N 59°21' E 018°07'0 0.0
2017-May-20 08:28N 59°21' E 018°07'0 0.0
2017-May-20 07:49N 59°21' E 018°07'0 0.0
2017-May-20 07:25N 59°21' E 018°07'0 0.0
2017-May-20 06:59N 59°21' E 018°07'0 0.0
2017-May-20 06:29N 59°21' E 018°07'0 0.0
2017-May-20 05:59N 59°21' E 018°07'0 0.0
2017-May-20 05:29N 59°21' E 018°07'0 0.3
2017-May-20 05:00N 59°21' E 018°08'2 4.4
2017-May-20 04:30N 59°20' E 018°12'8 9.2
2017-May-20 03:40N 59°22' E 018°27'4 9.4
2017-May-20 03:16N 59°25' E 018°24'3 7.5
2017-May-20 02:53N 59°26' E 018°30'811.1
2017-May-20 02:09N 59°22' E 018°44'413.6
2017-May-20 01:53N 59°19' E 018°48'610.9
2017-May-20 01:20N 59°16' E 018°58'410.9
2017-May-20 00:59N 59°14' E 019°05'812.5
2017-May-20 00:20N 59°15' E 019°20'6614.0
2017-May-19 19:39N 59°24' E 021°28'214.5
2017-May-19 19:29N 59°25' E 021°32'714.3
2017-May-19 18:59N 59°26' E 021°46'714.1
2017-May-19 18:30N 59°27' E 021°59'714.2
2017-May-19 17:59N 59°28' E 022°14'3014.0
2017-May-19 15:50N 59°38' E 023°10'514.5
2017-May-19 15:31N 59°39' E 023°19'714.2
2017-May-19 15:01N 59°41' E 023°32'1716.7
2017-May-19 14:00N 59°45' E 024°05'3017.1
2017-May-19 12:13N 60°01' E 024°57'2 0.2
2017-May-19 02:45N 60°02' E 024°58'4112.3
2017-May-18 23:26N 59°60' E 026°19'614.0
2017-May-18 23:01N 60°01' E 026°30'713.9
2017-May-18 22:31N 60°01' E 026°44'814.2
2017-May-18 21:58N 59°60' E 026°59'713.6
2017-May-18 21:28N 60°02' E 027°12'614.1
2017-May-18 21:01N 60°06' E 027°23'714.2
2017-May-18 20:30N 60°09' E 027°35'1115.8
2017-May-18 19:49N 60°11' E 027°56'619.0
2017-May-18 19:30N 60°09' E 028°09'918.4
2017-May-18 19:01N 60°05' E 028°25'918.4
2017-May-18 18:30N 60°03' E 028°43'3214.9
2017-May-18 16:22N 59°59' E 029°46'511.3
2017-May-18 15:53N 59°56' E 029°56'410.8
2017-May-18 15:30N 59°56' E 030°04'4 7.9
2017-May-18 15:00N 59°57' E 030°11'0 0.0
2017-May-18 13:56N 59°57' E 030°11'0 0.0
2017-May-18 13:29N 59°57' E 030°11'0 0.0
2017-May-18 12:59N 59°57' E 030°11'0 0.0
2017-May-18 12:29N 59°57' E 030°11'0 0.0
2017-May-18 11:59N 59°57' E 030°11'0 0.0
2017-May-18 11:29N 59°57' E 030°11'0 0.0
2017-May-18 10:59N 59°57' E 030°11'0 0.0
2017-May-18 10:29N 59°57' E 030°11'0 0.0
2017-May-18 09:59N 59°57' E 030°11'0 0.0
2017-May-18 09:29N 59°57' E 030°11'0 0.0
2017-May-18 08:59N 59°57' E 030°11'0 0.0
2017-May-18 08:29N 59°57' E 030°11'0 0.0
2017-May-18 07:59N 59°57' E 030°11'0 0.0
2017-May-18 07:29N 59°57' E 030°11'0 0.0
2017-May-18 06:59N 59°57' E 030°11'  
Track history (hours):
 
Tides and Currents Weather Stations Pressure Air Temp Water Temp Dewpoint Dewpoint Depression Visibility Wind Speed Wind Dir Waves Ship Positions

Seabourn Quest

Last reported at 2017-May-28 06:30 UTC. Time now 2017-May-28 06:44 UTC.
Position N 57°46' E 007°02'.

Length 198 m; draft 6.8 m.

Type: Passenger vessel. MMSI: 311038900.

Date/timePositionNaut miles runAvg speedWind from/ knotsBaromVisibWave heightAir tempDewpointWater temp
2017-May-28 06:30N 57°46' E 007°02'714.3
2017-May-28 06:00N 57°45' E 007°15'714.1
2017-May-28 05:30N 57°45' E 007°29'714.9
2017-May-28 05:00N 57°45' E 007°43'1019.1
2017-May-28 04:30N 57°46' E 008°01'2619.2
2017-May-28 03:10N 57°46' E 008°49'419.4
2017-May-28 02:57N 57°46' E 008°56'919.2
2017-May-28 02:30N 57°47' E 009°12'1019.0
2017-May-28 02:00N 57°47' E 009°31'1218.7
2017-May-28 01:20N 57°48' E 009°53'1118.9
2017-May-28 00:46N 57°49' E 010°14'518.8
2017-May-28 00:30N 57°49' E 010°23'918.9
2017-May-28 00:01N 57°49' E 010°41'918.0
2017-May-27 23:30N 57°44' E 010°56'919.2
2017-May-27 23:00N 57°38' E 011°09'1019.2
2017-May-27 22:31N 57°32' E 011°22'1019.3
2017-May-27 22:00N 57°23' E 011°30'918.7
2017-May-27 21:30N 57°14' E 011°36'918.9
2017-May-27 21:00N 57°05' E 011°41'1018.8
2017-May-27 20:29N 56°56' E 011°47'918.7
2017-May-27 20:00N 56°47' E 011°52'3118.6
2017-May-27 18:19N 56°17' E 012°08'719.0
2017-May-27 17:58N 56°14' E 012°18'918.6
2017-May-27 17:30N 56°08' E 012°30'918.3
2017-May-27 17:00N 56°01' E 012°41'816.8
2017-May-27 16:31N 55°53' E 012°46'816.0
2017-May-27 16:01N 55°46' E 012°41'4 7.0
2017-May-27 15:30N 55°43' E 012°38'0 0.0
2017-May-27 14:58N 55°43' E 012°38'0 0.0
2017-May-27 13:58N 55°43' E 012°38'0 0.0
2017-May-27 13:30N 55°43' E 012°38'0 0.0
2017-May-27 13:00N 55°43' E 012°38'0 0.0
2017-May-27 12:30N 55°43' E 012°38'0 0.0
2017-May-27 11:59N 55°43' E 012°38'0 0.0
2017-May-27 11:29N 55°43' E 012°38'0 0.0
2017-May-27 10:59N 55°43' E 012°38'0 0.0
2017-May-27 10:29N 55°43' E 012°38'0 0.0
2017-May-27 09:59N 55°43' E 012°38'0 0.0
2017-May-27 09:29N 55°43' E 012°38'0 0.0
2017-May-27 08:59N 55°43' E 012°38'0 0.0
2017-May-27 08:29N 55°43' E 012°38'0 0.0
2017-May-27 07:59N 55°43' E 012°38'0 0.0
2017-May-27 07:29N 55°43' E 012°38'0 0.0
2017-May-27 06:59N 55°43' E 012°38'0 0.0
2017-May-27 06:29N 55°43' E 012°38'0 0.0
2017-May-27 05:59N 55°43' E 012°38'0 0.0
2017-May-27 05:29N 55°43' E 012°38'0 0.0
2017-May-27 04:59N 55°43' E 012°38'0 0.0
2017-May-27 04:29N 55°43' E 012°38'0 0.1
2017-May-27 04:00N 55°43' E 012°38'2 4.7
2017-May-27 03:30N 55°42' E 012°41'611.7
2017-May-27 03:00N 55°36' E 012°42'5 9.7
2017-May-27 02:30N 55°31' E 012°43'713.1
2017-May-27 02:00N 55°25' E 012°41'612.8
2017-May-27 01:30N 55°18' E 012°41'714.0
2017-May-27 01:00N 55°16' E 012°53'713.9
2017-May-27 00:30N 55°16' E 013°06'713.9
2017-May-27 00:00N 55°15' E 013°17'2615.1
2017-May-26 22:17N 55°13' E 014°03'515.2
2017-May-26 21:58N 55°13' E 014°11'613.6
2017-May-26 21:30N 55°16' E 014°21'815.1
2017-May-26 20:59N 55°22' E 014°30'714.8
2017-May-26 20:30N 55°28' E 014°38'815.2
2017-May-26 20:00N 55°32' E 014°49'714.7
2017-May-26 19:29N 55°36' E 014°60'715.1
2017-May-26 19:00N 55°40' E 015°11'815.3
2017-May-26 18:30N 55°43' E 015°24'815.4
2017-May-26 18:00N 55°46' E 015°36'815.5
2017-May-26 17:30N 55°50' E 015°48'815.7
2017-May-26 17:00N 55°54' E 016°00'815.5
2017-May-26 16:30N 55°57' E 016°12'815.5
2017-May-26 16:00N 56°01' E 016°24'815.3
2017-May-26 15:30N 56°05' E 016°36'815.2
2017-May-26 15:00N 56°09' E 016°47'815.2
2017-May-26 14:30N 56°14' E 016°58'1915.4
2017-May-26 13:17N 56°26' E 017°25'915.6
2017-May-26 12:43N 56°31' E 017°38'21815.0
2017-May-25 22:14N 59°18' E 021°60'314.2
2017-May-25 22:00N 59°20' E 022°05'3514.2
2017-May-25 19:33N 59°35' E 023°07'214.7
2017-May-25 19:26N 59°35' E 023°10'614.8
2017-May-25 19:00N 59°37' E 023°22'714.4
2017-May-25 18:30N 59°39' E 023°36'714.7
2017-May-25 18:00N 59°41' E 023°50'914.7
2017-May-25 17:25N 59°44' E 024°06'37 2.9
2017-May-25 04:28N 60°10' E 024°60'911.8
2017-May-25 03:44N 60°01' E 024°57'3012.4
2017-May-25 01:18N 59°57' E 025°57'414.9
2017-May-25 01:00N 59°58' E 026°06'714.6
2017-May-25 00:30N 59°60' E 026°20'714.5
2017-May-25 00:00N 60°02' E 026°33'714.4
2017-May-24 23:30N 60°01' E 026°48'814.6
2017-May-24 22:58N 59°59' E 027°03'714.7
2017-May-24 22:30N 60°03' E 027°15'714.8
2017-May-24 22:00N 60°07' E 027°27'714.7
2017-May-24 21:30N 60°11' E 027°40'917.7
2017-May-24 21:00N 60°11' E 027°58'1019.3
2017-May-24 20:30N 60°08' E 028°17'918.7
2017-May-24 20:00N 60°03' E 028°33'1019.3
2017-May-24 19:30N 60°03' E 028°52'2815.0
2017-May-24 17:40N 59°58' E 029°47'510.6
2017-May-24 17:10N 59°56' E 029°56'311.3
2017-May-24 16:56N 59°55' E 030°01'4 9.4
2017-May-24 16:30N 59°54' E 030°08'3 5.3
2017-May-24 16:00N 59°54' E 030°14'3 5.2
2017-May-24 15:30N 59°56' E 030°17'0 0.7
2017-May-24 14:59N 59°56' E 030°16'0 0.0
2017-May-24 14:29N 59°56' E 030°16'0 0.0
2017-May-24 13:29N 59°56' E 030°16'0 0.0
2017-May-24 12:56N 59°56' E 030°16'0 0.0
2017-May-24 12:29N 59°56' E 030°16'0 0.0
2017-May-24 11:58N 59°56' E 030°16'0 0.0
2017-May-24 11:30N 59°56' E 030°16'0 0.0
2017-May-24 10:58N 59°56' E 030°16'0 0.0
2017-May-24 10:30N 59°56' E 030°16'0 0.0
2017-May-24 10:01N 59°56' E 030°16'0 0.0
2017-May-24 09:30N 59°56' E 030°16'0 0.0
2017-May-24 09:01N 59°56' E 030°16'0 0.0
2017-May-24 08:29N 59°56' E 030°16'0 0.0
2017-May-24 07:59N 59°56' E 030°16'0 0.0
2017-May-24 07:29N 59°56' E 030°16'0 0.0
2017-May-24 07:00N 59°56' E 030°16'0 0.0
2017-May-24 06:29N 59°56' E 030°16'0 0.0
2017-May-24 05:59N 59°56' E 030°16'0 0.0
2017-May-24 05:29N 59°56' E 030°16'0 0.0
2017-May-24 04:59N 59°56' E 030°16'0 0.0
2017-May-24 04:29N 59°56' E 030°16'0 0.0
2017-May-24 03:59N 59°56' E 030°16'0 0.0
2017-May-24 03:29N 59°56' E 030°16'0 0.0
2017-May-24 03:00N 59°56' E 030°16'0 0.0
2017-May-24 02:30N 59°56' E 030°16'0 0.0
2017-May-24 01:59N 59°56' E 030°16'0 0.0
2017-May-24 01:28N 59°56' E 030°16'0 0.0
2017-May-24 01:00N 59°56' E 030°16'0 0.0
2017-May-24 00:28N 59°56' E 030°16'0 0.0
2017-May-24 00:00N 59°56' E 030°16'0 0.0
2017-May-23 23:29N 59°56' E 030°16'0 0.0
2017-May-23 23:00N 59°56' E 030°16'0 0.0
2017-May-23 22:28N 59°56' E 030°16'0 0.0
2017-May-23 21:58N 59°56' E 030°16'0 0.0
2017-May-23 21:28N 59°56' E 030°16'0 0.0
2017-May-23 20:58N 59°56' E 030°16'0 0.0
2017-May-23 20:28N 59°56' E 030°16'0 0.0
2017-May-23 19:52N 59°56' E 030°16'0 0.0
2017-May-23 19:28N 59°56' E 030°16'0 0.0
2017-May-23 18:58N 59°56' E 030°16'0 0.0
2017-May-23 18:30N 59°56' E 030°16'0 0.0
2017-May-23 18:00N 59°56' E 030°16'0 0.0
2017-May-23 17:27N 59°56' E 030°16'0 0.0
2017-May-23 17:00N 59°56' E 030°16'0 0.0
2017-May-23 16:30N 59°56' E 030°16'0 0.0
2017-May-23 16:00N 59°56' E 030°16'0 0.0
2017-May-23 15:30N 59°56' E 030°16'0 0.0
2017-May-23 15:00N 59°56' E 030°16'0 0.0
2017-May-23 14:00N 59°56' E 030°16'0 0.0
2017-May-23 13:30N 59°56' E 030°16'0 0.0
2017-May-23 13:00N 59°56' E 030°16'0 0.0
2017-May-23 12:30N 59°56' E 030°16'0 0.0
2017-May-23 11:59N 59°56' E 030°16'0 0.0
2017-May-23 11:29N 59°56' E 030°16'0 0.0
2017-May-23 10:59N 59°56' E 030°16'0 0.0
2017-May-23 10:28N 59°56' E 030°16'0 0.0
2017-May-23 09:58N 59°56' E 030°16'0 0.0
2017-May-23 09:30N 59°56' E 030°16'0 0.0
2017-May-23 08:59N 59°56' E 030°16'0 0.0
2017-May-23 08:28N 59°56' E 030°16'0 0.0
2017-May-23 07:56N 59°56' E 030°16'0 0.0
2017-May-23 07:30N 59°56' E 030°16'0 0.0
2017-May-23 06:59N 59°56' E 030°16'0 0.0
2017-May-23 06:29N 59°56' E 030°16'0 0.0
2017-May-23 05:59N 59°56' E 030°16'0 0.0
2017-May-23 05:29N 59°56' E 030°16'0 0.0
2017-May-23 04:59N 59°56' E 030°16'0 0.0
2017-May-23 04:28N 59°56' E 030°16'0 0.0
2017-May-23 04:00N 59°56' E 030°16'0 0.0
2017-May-23 03:29N 59°56' E 030°16'0 0.0
2017-May-23 02:58N 59°56' E 030°16'0 0.0
2017-May-23 02:29N 59°56' E 030°16'0 0.0
2017-May-23 01:59N 59°56' E 030°16'0 0.0
2017-May-23 01:29N 59°56' E 030°16'0 0.0
2017-May-23 00:59N 59°56' E 030°16'0 0.0
2017-May-23 00:29N 59°56' E 030°16'0 0.0
2017-May-22 23:59N 59°56' E 030°16'0 0.0
2017-May-22 23:29N 59°56' E 030°16'0 0.0
2017-May-22 22:59N 59°56' E 030°16'0 0.0
2017-May-22 22:30N 59°56' E 030°16'0 0.0
2017-May-22 21:59N 59°56' E 030°16'0 0.0
2017-May-22 21:29N 59°56' E 030°16'0 0.0
2017-May-22 20:59N 59°56' E 030°16'0 0.0
2017-May-22 20:29N 59°56' E 030°16'0 0.0
2017-May-22 19:59N 59°56' E 030°16'0 0.0
2017-May-22 19:29N 59°56' E 030°16'0 0.0
2017-May-22 18:59N 59°56' E 030°16'0 0.0
2017-May-22 18:29N 59°56' E 030°16'0 0.0
2017-May-22 17:59N 59°56' E 030°16'0 0.0
2017-May-22 17:29N 59°56' E 030°16'0 0.0
2017-May-22 17:00N 59°56' E 030°16'0 0.0
2017-May-22 16:29N 59°56' E 030°16'0 0.0
2017-May-22 15:58N 59°56' E 030°16'0 0.0
2017-May-22 15:28N 59°56' E 030°16'0 0.0
2017-May-22 15:00N 59°56' E 030°16'0 0.0
2017-May-22 13:59N 59°56' E 030°16'0 0.0
2017-May-22 13:28N 59°56' E 030°16'0 0.0
2017-May-22 13:00N 59°56' E 030°16'0 0.0
2017-May-22 12:26N 59°56' E 030°16'0 0.0
2017-May-22 11:58N 59°56' E 030°16'0 0.0
2017-May-22 11:28N 59°56' E 030°16'0 0.0
2017-May-22 10:58N 59°56' E 030°16'0 0.0
2017-May-22 10:29N 59°56' E 030°16'0 0.0
2017-May-22 09:59N 59°56' E 030°16'0 0.0
2017-May-22 09:29N 59°56' E 030°16'0 0.0
2017-May-22 08:59N 59°56' E 030°16'0 0.0
2017-May-22 08:23N 59°56' E 030°16'0 0.0
2017-May-22 07:59N 59°56' E 030°16'0 0.0
2017-May-22 07:26N 59°56' E 030°16'0 0.0
2017-May-22 06:58N 59°56' E 030°16'0 0.0
2017-May-22 06:31N 59°56' E 030°16'0 0.0
2017-May-22 05:59N 59°56' E 030°16'0 0.0
2017-May-22 05:28N 59°56' E 030°16'0 0.0
2017-May-22 05:01N 59°56' E 030°16'0 0.9
2017-May-22 04:31N 59°55' E 030°16'3 5.4
2017-May-22 04:00N 59°53' E 030°12'3 6.7
2017-May-22 03:30N 59°54' E 030°06'611.7
2017-May-22 03:00N 59°56' E 029°55'611.4
2017-May-22 02:29N 59°59' E 029°44'2210.4
2017-May-22 00:23N 60°02' E 029°01'514.7
2017-May-22 00:00N 60°02' E 028°50'714.6
2017-May-21 23:30N 60°02' E 028°36'714.0
2017-May-21 23:00N 60°04' E 028°22'713.6
2017-May-21 22:30N 60°08' E 028°10'714.0
2017-May-21 22:00N 60°10' E 027°57'713.4
2017-May-21 21:30N 60°10' E 027°44'714.4
2017-May-21 21:00N 60°07' E 027°31'714.6
2017-May-21 20:30N 60°03' E 027°18'815.0
2017-May-21 20:00N 59°59' E 027°05'714.5
2017-May-21 19:30N 59°59' E 026°51'714.3
2017-May-21 19:00N 59°59' E 026°37'76 5.4
2017-May-21 04:55N 59°30' E 024°18'813.2
2017-May-21 04:19N 59°29' E 024°02'514.0
2017-May-21 03:58N 59°29' E 023°53'714.3
2017-May-21 03:30N 59°29' E 023°40'713.9
2017-May-21 03:00N 59°28' E 023°26'713.7
2017-May-21 02:30N 59°27' E 023°13'4015.9
2017-May-21 00:00N 59°12' E 022°00'8518.1 050 / 101020.010.8 8.9 7.1
2017-May-20 19:15N 59°14' E 019°13'713.4
2017-May-20 18:42N 59°16' E 018°59'5 9.7
2017-May-20 18:13N 59°18' E 018°51'1411.8
2017-May-20 17:02N 59°26' E 018°28'112.1
2017-May-20 16:56N 59°26' E 018°26'3 7.0
2017-May-20 16:30N 59°24' E 018°27'4 6.3
2017-May-20 15:55N 59°22' E 018°20'511.5
2017-May-20 15:30N 59°20' E 018°12'2 4.3
2017-May-20 14:59N 59°21' E 018°07'0 0.0
2017-May-20 13:59N 59°21' E 018°07'0 0.0
2017-May-20 13:28N 59°21' E 018°07'0 0.0
2017-May-20 13:00N 59°21' E 018°07'0 0.0
2017-May-20 12:30N 59°21' E 018°07'0 0.0
2017-May-20 11:59N 59°21' E 018°07'0 0.0
2017-May-20 11:29N 59°21' E 018°07'0 0.0
2017-May-20 10:59N 59°21' E 018°07'0 0.0
2017-May-20 10:29N 59°21' E 018°07'0 0.0
2017-May-20 09:59N 59°21' E 018°07'0 0.0
2017-May-20 09:26N 59°21' E 018°07'0 0.0
2017-May-20 08:58N 59°21' E 018°07'0 0.0
2017-May-20 08:28N 59°21' E 018°07'0 0.0
2017-May-20 07:49N 59°21' E 018°07'0 0.0
2017-May-20 07:25N 59°21' E 018°07'0 0.0
2017-May-20 06:59N 59°21' E 018°07'0 0.0
2017-May-20 06:29N 59°21' E 018°07'0 0.0
2017-May-20 05:59N 59°21' E 018°07'0 0.0
2017-May-20 05:29N 59°21' E 018°07'0 0.3
2017-May-20 05:00N 59°21' E 018°08'2 4.4
2017-May-20 04:30N 59°20' E 018°12'8 9.2
2017-May-20 03:40N 59°22' E 018°27'4 9.4
2017-May-20 03:16N 59°25' E 018°24'3 7.5
2017-May-20 02:53N 59°26' E 018°30'811.1
2017-May-20 02:09N 59°22' E 018°44'413.6
2017-May-20 01:53N 59°19' E 018°48'610.9
2017-May-20 01:20N 59°16' E 018°58'410.9
2017-May-20 00:59N 59°14' E 019°05'812.5
2017-May-20 00:20N 59°15' E 019°20'6614.0
2017-May-19 19:39N 59°24' E 021°28'214.5
2017-May-19 19:29N 59°25' E 021°32'714.3
2017-May-19 18:59N 59°26' E 021°46'714.1
2017-May-19 18:30N 59°27' E 021°59'714.2
2017-May-19 17:59N 59°28' E 022°14'3014.0
2017-May-19 15:50N 59°38' E 023°10'514.5
2017-May-19 15:31N 59°39' E 023°19'714.2
2017-May-19 15:01N 59°41' E 023°32'1716.7
2017-May-19 14:00N 59°45' E 024°05'3017.1
2017-May-19 12:13N 60°01' E 024°57'2 0.2
2017-May-19 02:45N 60°02' E 024°58'4112.3
2017-May-18 23:26N 59°60' E 026°19'614.0
2017-May-18 23:01N 60°01' E 026°30'713.9
2017-May-18 22:31N 60°01' E 026°44'814.2
2017-May-18 21:58N 59°60' E 026°59'713.6
2017-May-18 21:28N 60°02' E 027°12'614.1
2017-May-18 21:01N 60°06' E 027°23'714.2
2017-May-18 20:30N 60°09' E 027°35'1115.8
2017-May-18 19:49N 60°11' E 027°56'619.0
2017-May-18 19:30N 60°09' E 028°09'918.4
2017-May-18 19:01N 60°05' E 028°25'918.4
2017-May-18 18:30N 60°03' E 028°43'3214.9
2017-May-18 16:22N 59°59' E 029°46'511.3
2017-May-18 15:53N 59°56' E 029°56'410.8
2017-May-18 15:30N 59°56' E 030°04'4 7.9
2017-May-18 15:00N 59°57' E 030°11'0 0.0
2017-May-18 13:56N 59°57' E 030°11'0 0.0
2017-May-18 13:29N 59°57' E 030°11'0 0.0
2017-May-18 12:59N 59°57' E 030°11'0 0.0
2017-May-18 12:29N 59°57' E 030°11'0 0.0
2017-May-18 11:59N 59°57' E 030°11'0 0.0
2017-May-18 11:29N 59°57' E 030°11'0 0.0
2017-May-18 10:59N 59°57' E 030°11'0 0.0
2017-May-18 10:29N 59°57' E 030°11'0 0.0
2017-May-18 09:59N 59°57' E 030°11'0 0.0
2017-May-18 09:29N 59°57' E 030°11'0 0.0
2017-May-18 08:59N 59°57' E 030°11'0 0.0
2017-May-18 08:29N 59°57' E 030°11'0 0.0
2017-May-18 07:59N 59°57' E 030°11'0 0.0
2017-May-18 07:29N 59°57' E 030°11'0 0.0
2017-May-18 06:59N 59°57' E 030°11'  

Dump ship's entire track history